Time;durP1;ratioP1;P1;durP2;ratioP2;P2;SDS_P1;SDS_P2;PMS_P1;PMS_P2;Temp;Humidity;BMP_temperature;BMP_pressure;BME280_temperature;BME280_humidity;BME280_pressure;Samples;Min_cycle;Max_cycle;Signal;HPM_P1;HPM_P2
2021/01/23 00:00:19;;;;;;;11.70;8.32;;;6.00;99.90;;;;;;5035804;28;20074;-58
2021/01/23 00:02:45;;;;;;;15.43;9.15;;;5.90;99.90;;;;;;5034985;28;20037;-58
2021/01/23 00:05:11;;;;;;;10.98;8.25;;;6.00;99.90;;;;;;5035543;28;20029;-59
2021/01/23 00:07:37;;;;;;;13.43;8.85;;;6.00;99.90;;;;;;5034872;28;20053;-65
2021/01/23 00:10:04;;;;;;;12.25;8.75;;;6.00;99.90;;;;;;5017294;28;20467;-59
2021/01/23 00:12:30;;;;;;;11.88;8.15;;;6.10;99.90;;;;;;5002089;28;20039;-60
2021/01/23 00:14:55;;;;;;;10.30;8.55;;;6.10;99.90;;;;;;5017506;28;20135;-59
2021/01/23 00:17:21;;;;;;;11.95;9.35;;;6.10;99.90;;;;;;5035848;28;20025;-60
2021/01/23 00:19:47;;;;;;;13.23;8.52;;;6.10;99.90;;;;;;5034525;28;20026;-59
2021/01/23 00:22:13;;;;;;;11.38;8.68;;;6.10;99.90;;;;;;5035735;28;20025;-60
2021/01/23 00:24:38;;;;;;;10.57;8.35;;;6.20;99.90;;;;;;5034520;28;20056;-63
2021/01/23 00:27:04;;;;;;;15.18;8.73;;;6.20;99.90;;;;;;5017103;28;20033;-60
2021/01/23 00:29:30;;;;;;;13.55;9.75;;;6.20;99.90;;;;;;5017260;28;20080;-58
2021/01/23 00:31:57;;;;;;;13.23;9.55;;;6.20;99.90;;;;;;5034525;28;20087;-63
2021/01/23 00:34:23;;;;;;;14.50;9.50;;;6.20;99.90;;;;;;5035356;28;20029;-58
2021/01/23 00:36:49;;;;;;;14.90;9.60;;;6.20;99.90;;;;;;5015457;28;20056;-58
2021/01/23 00:39:15;;;;;;;14.45;9.68;;;6.10;99.90;;;;;;5034801;28;20466;-59
2021/01/23 00:41:40;;;;;;;11.38;8.85;;;6.00;99.90;;;;;;5016415;28;20059;-62
2021/01/23 00:44:06;;;;;;;14.88;9.35;;;6.00;99.90;;;;;;5017604;28;20022;-58
2021/01/23 00:46:32;;;;;;;13.52;9.05;;;5.90;99.90;;;;;;5017317;28;20429;-59
2021/01/23 00:48:58;;;;;;;11.82;8.95;;;6.00;99.90;;;;;;5033527;28;20041;-59
2021/01/23 00:51:23;;;;;;;17.42;9.90;;;6.00;99.90;;;;;;5035086;28;20029;-59
2021/01/23 00:53:49;;;;;;;14.07;9.48;;;5.90;99.90;;;;;;5033592;28;20032;-58
2021/01/23 00:56:15;;;;;;;13.85;9.63;;;6.10;99.90;;;;;;5017369;28;20079;-59
2021/01/23 00:58:41;;;;;;;14.27;10.13;;;6.00;99.90;;;;;;5016917;28;20033;-69
2021/01/23 01:01:07;;;;;;;12.90;10.50;;;5.90;99.90;;;;;;5017311;28;20100;-59
2021/01/23 01:03:33;;;;;;;14.38;9.45;;;6.00;99.90;;;;;;5035033;28;20061;-58
2021/01/23 01:05:59;;;;;;;14.35;10.35;;;6.00;99.90;;;;;;5034514;28;20322;-58
2021/01/23 01:08:24;;;;;;;13.80;9.38;;;6.00;99.90;;;;;;5034795;28;20538;-59
2021/01/23 01:10:50;;;;;;;12.10;8.82;;;5.90;99.90;;;;;;5015617;28;20088;-60
2021/01/23 01:13:16;;;;;;;13.35;9.05;;;5.90;99.90;;;;;;5034349;28;20028;-58
2021/01/23 01:15:42;;;;;;;14.48;9.75;;;5.60;99.90;;;;;;5033925;28;20521;-69
2021/01/23 01:18:08;;;;;;;14.27;9.50;;;5.70;99.90;;;;;;5034796;28;20060;-58
2021/01/23 01:20:34;;;;;;;15.10;8.73;;;5.70;99.90;;;;;;5016922;28;20068;-58
2021/01/23 01:23:00;;;;;;;14.00;10.00;;;5.70;99.90;;;;;;5016548;28;20029;-60
2021/01/23 01:25:27;;;;;;;14.85;10.05;;;5.70;99.90;;;;;;5034566;28;20104;-60
2021/01/23 01:27:53;;;;;;;14.77;9.35;;;5.60;99.90;;;;;;5015385;28;20041;-64
2021/01/23 01:30:20;;;;;;;11.27;8.48;;;5.70;99.90;;;;;;5016771;28;20060;-59
2021/01/23 01:32:46;;;;;;;14.40;9.65;;;5.80;99.90;;;;;;5016100;28;20105;-58
2021/01/23 01:35:11;;;;;;;17.90;9.55;;;5.80;99.90;;;;;;5016393;28;20061;-59
2021/01/23 01:37:37;;;;;;;15.23;10.10;;;5.70;99.90;;;;;;5034261;28;20099;-59
2021/01/23 01:40:04;;;;;;;17.58;11.48;;;5.50;99.90;;;;;;5033477;28;20024;-59
2021/01/23 01:42:30;;;;;;;15.90;10.38;;;5.40;99.90;;;;;;5018637;28;20052;-58
2021/01/23 01:44:56;;;;;;;14.32;10.35;;;5.40;99.90;;;;;;5017435;28;20033;-59
2021/01/23 01:47:21;;;;;;;16.92;11.05;;;5.30;99.90;;;;;;5035772;28;20085;-59
2021/01/23 01:49:48;;;;;;;13.38;10.30;;;5.30;99.90;;;;;;5033378;28;20033;-59
2021/01/23 01:52:15;;;;;;;13.02;9.77;;;5.30;99.90;;;;;;5034248;28;20025;-59
2021/01/23 01:54:41;;;;;;;17.58;10.63;;;5.40;99.90;;;;;;5016087;28;20468;-62
2021/01/23 01:57:07;;;;;;;16.20;11.00;;;5.30;99.90;;;;;;5017315;28;20033;-60
2021/01/23 01:59:33;;;;;;;15.25;11.13;;;5.40;99.90;;;;;;5017704;28;20083;-59
2021/01/23 02:02:26;;;;;;;15.55;10.15;;;5.40;99.90;;;;;;5017276;28;20032;-60
2021/01/23 02:05:03;;;;;;;17.20;11.20;;;5.40;99.90;;;;;;5034342;28;20021;-60
2021/01/23 02:07:42;;;;;;;14.32;10.68;;;5.40;99.90;;;;;;5033356;28;20054;-58
2021/01/23 02:10:16;;;;;;;20.92;12.02;;;5.40;99.90;;;;;;5015236;28;20037;-59
2021/01/23 02:12:42;;;;;;;14.55;11.45;;;5.50;99.90;;;;;;5016686;28;20025;-66
2021/01/23 02:15:13;;;;;;;13.30;10.10;;;5.30;99.90;;;;;;5034596;28;20040;-63
2021/01/23 02:17:47;;;;;;;18.70;10.63;;;5.40;99.90;;;;;;5036024;28;20025;-60
2021/01/23 02:20:29;;;;;;;16.00;11.20;;;5.40;99.90;;;;;;5035443;28;20033;-60
2021/01/23 02:23:14;;;;;;;15.13;10.23;;;5.50;99.90;;;;;;5017076;28;20021;-58
2021/01/23 02:26:01;;;;;;;14.55;10.55;;;5.50;99.90;;;;;;5017708;28;20056;-65
2021/01/23 02:28:54;;;;;;;14.95;9.90;;;5.40;99.90;;;;;;5017225;28;20107;-61
2021/01/23 02:31:22;;;;;;;15.90;11.13;;;5.40;99.90;;;;;;5016291;28;20036;-58
2021/01/23 02:33:52;;;;;;;12.57;10.07;;;5.40;99.90;;;;;;5015651;28;20076;-63
2021/01/23 02:36:23;;;;;;;16.75;10.77;;;5.50;99.90;;;;;;5016684;28;20123;-58
2021/01/23 02:38:51;;;;;;;15.02;9.75;;;5.40;99.90;;;;;;5032806;28;20038;-58
2021/01/23 02:41:17;;;;;;;14.02;10.63;;;5.50;99.90;;;;;;5033269;28;20028;-60
2021/01/23 02:43:44;;;;;;;17.05;11.82;;;5.60;99.90;;;;;;5015913;28;20036;-58
2021/01/23 02:46:12;;;;;;;17.92;11.73;;;5.50;99.90;;;;;;5034557;28;20025;-58
2021/01/23 02:48:38;;;;;;;15.25;9.88;;;5.60;99.90;;;;;;5033837;28;20372;-59
2021/01/23 02:51:10;;;;;;;18.90;10.32;;;5.50;99.90;;;;;;5016250;28;20105;-60
2021/01/23 02:53:38;;;;;;;15.38;10.13;;;5.40;99.90;;;;;;4999585;28;20035;-58
2021/01/23 02:56:18;;;;;;;13.48;9.27;;;5.40;99.90;;;;;;5014251;28;20029;-59
2021/01/23 02:58:45;;;;;;;14.02;9.80;;;5.40;99.90;;;;;;5014949;28;20443;-59
2021/01/23 03:01:13;;;;;;;17.75;9.75;;;5.60;99.90;;;;;;5031456;28;20085;-60
2021/01/23 03:03:41;;;;;;;13.00;8.77;;;5.60;99.90;;;;;;5014377;28;20049;-60
2021/01/23 03:06:07;;;;;;;9.93;7.75;;;5.70;99.90;;;;;;5031488;28;20029;-59
2021/01/23 03:08:33;;;;;;;12.13;7.95;;;5.80;99.90;;;;;;5034326;28;20128;-60
2021/01/23 03:10:59;;;;;;;9.05;6.15;;;5.80;99.90;;;;;;5033694;28;20071;-64
2021/01/23 03:13:25;;;;;;;9.82;7.13;;;5.80;99.90;;;;;;5033476;28;20029;-58
2021/01/23 03:15:50;;;;;;;9.63;6.18;;;5.80;99.90;;;;;;5031880;28;20099;-59
2021/01/23 03:18:16;;;;;;;10.00;6.10;;;6.00;99.90;;;;;;5015667;28;20447;-61
2021/01/23 03:20:42;;;;;;;12.98;5.75;;;6.00;99.90;;;;;;5032891;28;20029;-66
2021/01/23 03:23:07;;;;;;;11.00;6.50;;;6.00;99.90;;;;;;5031467;28;20472;-64
2021/01/23 03:25:34;;;;;;;8.27;5.43;;;5.90;99.90;;;;;;5033025;28;20051;-60
2021/01/23 03:28:00;;;;;;;7.97;6.15;;;6.00;99.90;;;;;;5013919;28;20045;-58
2021/01/23 03:30:28;;;;;;;10.13;6.60;;;5.90;99.90;;;;;;5014782;28;20364;-58
2021/01/23 03:32:54;;;;;;;12.45;7.40;;;5.90;99.90;;;;;;5013969;28;20451;-59
2021/01/23 03:35:20;;;;;;;8.00;5.53;;;5.90;99.90;;;;;;5032734;28;20109;-58
2021/01/23 03:37:46;;;;;;;8.73;5.90;;;6.00;99.90;;;;;;5014257;28;20043;-58
2021/01/23 03:40:12;;;;;;;12.98;5.60;;;6.00;99.90;;;;;;5014667;28;20120;-59
2021/01/23 03:42:38;;;;;;;10.93;5.95;;;5.90;99.90;;;;;;5032383;28;20034;-61
2021/01/23 03:45:06;;;;;;;8.02;4.93;;;5.90;99.90;;;;;;5031438;28;20071;-60
2021/01/23 03:47:32;;;;;;;8.18;5.60;;;5.90;99.90;;;;;;5015247;28;20044;-62
2021/01/23 03:49:58;;;;;;;8.77;5.05;;;6.00;99.90;;;;;;5032730;28;20479;-59
2021/01/23 03:52:23;;;;;;;7.47;4.93;;;6.00;99.90;;;;;;5015007;28;20104;-58
2021/01/23 03:54:49;;;;;;;9.38;5.55;;;6.00;99.90;;;;;;5014896;28;20459;-63
2021/01/23 03:57:15;;;;;;;8.05;5.20;;;6.00;99.90;;;;;;4998167;28;20124;-58
2021/01/23 03:59:40;;;;;;;25.27;6.70;;;5.90;99.90;;;;;;5032661;28;20029;-61
2021/01/23 04:02:06;;;;;;;9.20;4.85;;;5.90;99.90;;;;;;5013658;28;20029;-59
2021/01/23 04:04:32;;;;;;;10.30;4.88;;;5.90;99.90;;;;;;5015311;28;20036;-57
2021/01/23 04:06:58;;;;;;;11.45;5.28;;;5.90;99.90;;;;;;5031916;28;20049;-63
2021/01/23 04:09:25;;;;;;;7.80;4.95;;;6.00;99.90;;;;;;5014950;28;20471;-62
2021/01/23 04:11:51;;;;;;;7.70;5.05;;;5.90;99.90;;;;;;5014659;28;20029;-64
2021/01/23 04:14:17;;;;;;;7.00;4.88;;;6.00;99.90;;;;;;5035561;28;20036;-59
2021/01/23 04:16:49;;;;;;;9.02;5.32;;;5.90;99.90;;;;;;5018335;28;20021;-58
2021/01/23 04:19:16;;;;;;;9.50;5.65;;;6.00;99.90;;;;;;5017264;28;20029;-59
2021/01/23 04:21:42;;;;;;;6.72;5.47;;;5.90;99.90;;;;;;5035616;28;20021;-60
2021/01/23 04:24:08;;;;;;;8.50;4.88;;;5.90;99.90;;;;;;5033827;28;20490;-58
2021/01/23 04:26:34;;;;;;;5.68;4.70;;;5.90;99.90;;;;;;5017285;28;20036;-59
2021/01/23 04:29:00;;;;;;;7.75;5.07;;;5.90;99.90;;;;;;5016678;28;20537;-58
2021/01/23 04:31:26;;;;;;;6.32;5.35;;;5.80;99.90;;;;;;5017493;28;20038;-59
2021/01/23 04:33:51;;;;;;;8.55;5.63;;;5.80;99.90;;;;;;5034478;28;20026;-62
2021/01/23 04:36:17;;;;;;;8.73;6.05;;;5.70;99.90;;;;;;5034518;28;20032;-60
2021/01/23 04:38:43;;;;;;;7.70;4.97;;;5.70;99.90;;;;;;5034724;28;20471;-58
2021/01/23 04:41:08;;;;;;;9.63;6.15;;;5.80;99.90;;;;;;5016232;28;20033;-58
2021/01/23 04:43:34;;;;;;;6.55;4.90;;;5.80;99.90;;;;;;5017195;28;20030;-59
2021/01/23 04:46:00;;;;;;;6.45;4.88;;;5.70;99.90;;;;;;5034526;28;20025;-60
2021/01/23 04:48:26;;;;;;;10.40;6.22;;;5.70;99.90;;;;;;5034984;28;20116;-64
2021/01/23 04:50:52;;;;;;;8.82;6.20;;;5.70;99.90;;;;;;5017472;28;20053;-62
2021/01/23 04:53:18;;;;;;;9.55;6.88;;;5.60;99.90;;;;;;5035913;28;20386;-59
2021/01/23 04:55:43;;;;;;;7.57;5.13;;;5.50;99.90;;;;;;5018797;28;20025;-59
2021/01/23 04:58:09;;;;;;;9.15;7.20;;;5.40;99.90;;;;;;5035982;28;20379;-58
2021/01/23 05:00:35;;;;;;;10.88;6.13;;;5.30;99.90;;;;;;5036389;28;20033;-62
2021/01/23 05:03:03;;;;;;;12.50;6.82;;;5.20;99.90;;;;;;5035325;28;20365;-60
2021/01/23 05:05:29;;;;;;;10.88;6.10;;;5.20;99.90;;;;;;5017031;28;20036;-58
2021/01/23 05:08:15;;;;;;;8.43;6.10;;;5.20;99.90;;;;;;5034398;28;20052;-62
2021/01/23 05:10:41;;;;;;;9.30;5.60;;;5.20;99.90;;;;;;5034523;28;20475;-62
2021/01/23 05:13:15;;;;;;;8.32;6.00;;;5.20;99.90;;;;;;5016975;28;20029;-59
2021/01/23 05:15:45;;;;;;;12.98;6.97;;;5.20;99.90;;;;;;5038287;28;20443;-57
2021/01/23 05:18:12;;;;;;;9.75;7.05;;;5.00;99.90;;;;;;5019772;28;20033;-60
2021/01/23 05:20:39;;;;;;;8.93;5.75;;;5.20;99.90;;;;;;5036434;28;20021;-58
2021/01/23 05:23:25;;;;;;;7.85;5.18;;;5.20;99.90;;;;;;5017129;28;20041;-58
2021/01/23 05:25:59;;;;;;;9.32;6.82;;;5.20;99.90;;;;;;5018316;28;20463;-59
2021/01/23 05:28:36;;;;;;;7.63;4.70;;;5.20;99.90;;;;;;5036447;28;20037;-60
2021/01/23 05:31:05;;;;;;;6.93;5.18;;;5.10;99.90;;;;;;5034101;28;20021;-60
2021/01/23 05:33:32;;;;;;;7.00;5.18;;;5.00;99.90;;;;;;5033931;28;20065;-58
2021/01/23 05:36:01;;;;;;;8.55;4.30;;;5.10;99.90;;;;;;5033629;28;20036;-64
2021/01/23 05:38:34;;;;;;;10.07;5.25;;;5.00;99.90;;;;;;5034291;28;20037;-59
2021/01/23 05:41:06;;;;;;;7.38;5.18;;;5.00;99.90;;;;;;5034248;28;20053;-60
2021/01/23 05:43:46;;;;;;;7.78;4.95;;;5.00;99.90;;;;;;5035175;28;20108;-65
2021/01/23 05:46:16;;;;;;;10.07;5.47;;;4.90;99.90;;;;;;5035019;28;20037;-60
2021/01/23 05:48:44;;;;;;;7.45;5.32;;;4.90;99.90;;;;;;5036264;28;20044;-63
2021/01/23 05:51:11;;;;;;;6.43;4.28;;;4.90;99.90;;;;;;5018093;28;20026;-59
2021/01/23 05:53:36;;;;;;;5.63;4.35;;;4.90;99.90;;;;;;5018025;28;20459;-58
2021/01/23 05:56:03;;;;;;;8.38;5.68;;;4.80;99.90;;;;;;5016788;28;20041;-69
2021/01/23 05:58:32;;;;;;;9.48;4.85;;;4.70;99.90;;;;;;5036189;28;20033;-61
2021/01/23 06:00:59;;;;;;;7.40;5.63;;;4.80;99.90;;;;;;5035793;28;20375;-66
2021/01/23 06:03:33;;;;;;;9.13;5.95;;;4.80;99.90;;;;;;5035160;28;20022;-60
2021/01/23 06:05:59;;;;;;;11.48;5.72;;;4.70;99.90;;;;;;5016834;28;20060;-64
2021/01/23 06:08:36;;;;;;;9.70;5.47;;;4.60;99.90;;;;;;5034104;28;20618;-58
2021/01/23 06:11:02;;;;;;;9.82;6.13;;;4.70;99.90;;;;;;5015610;28;20080;-60
2021/01/23 06:13:37;;;;;;;9.13;5.20;;;4.70;99.90;;;;;;5016228;28;20029;-59
2021/01/23 06:16:03;;;;;;;9.38;5.35;;;4.60;99.90;;;;;;5032883;28;20057;-59
2021/01/23 06:18:30;;;;;;;8.40;5.07;;;4.70;99.90;;;;;;5033782;28;20034;-59
2021/01/23 06:20:58;;;;;;;10.75;5.28;;;4.70;99.90;;;;;;5034296;28;20025;-59
2021/01/23 06:23:51;;;;;;;9.88;5.97;;;4.60;99.90;;;;;;5015431;28;20030;-59
2021/01/23 06:26:18;;;;;;;7.88;5.25;;;4.60;99.90;;;;;;5031273;28;20029;-60
2021/01/23 06:28:44;;;;;;;9.77;5.68;;;4.60;99.90;;;;;;5033018;28;20432;-60
2021/01/23 06:31:21;;;;;;;9.27;5.97;;;4.70;99.90;;;;;;5032410;28;20129;-63
2021/01/23 06:33:51;;;;;;;13.45;6.25;;;4.60;99.90;;;;;;5033072;28;20025;-58
2021/01/23 06:36:18;;;;;;;10.73;6.35;;;4.70;99.90;;;;;;5031855;28;20512;-60
2021/01/23 06:39:07;;;;;;;7.63;6.35;;;4.60;99.90;;;;;;5033421;28;20037;-59
2021/01/23 06:41:34;;;;;;;9.93;5.80;;;4.60;99.90;;;;;;5011131;28;20052;-62
2021/01/23 06:44:06;;;;;;;10.57;6.22;;;4.60;99.90;;;;;;5015056;28;20021;-64
2021/01/23 06:46:35;;;;;;;8.77;6.03;;;4.60;99.90;;;;;;5015916;28;20408;-59
2021/01/23 06:49:05;;;;;;;10.38;6.50;;;4.30;99.90;;;;;;5015043;28;20112;-66
2021/01/23 06:51:31;;;;;;;13.63;7.68;;;4.30;99.90;;;;;;5015360;28;20079;-60
2021/01/23 06:54:30;;;;;;;14.10;6.05;;;4.30;99.90;;;;;;5033172;28;20357;-59
2021/01/23 06:56:56;;;;;;;12.32;7.07;;;4.40;99.90;;;;;;4991279;28;20111;-61
2021/01/23 06:59:32;;;;;;;11.60;6.68;;;4.40;99.90;;;;;;5034656;28;20033;-60
2021/01/23 07:02:02;;;;;;;11.90;7.70;;;4.20;99.90;;;;;;5034299;28;20100;-58
2021/01/23 07:04:33;;;;;;;12.45;7.22;;;4.10;99.90;;;;;;5015330;28;20466;-59
2021/01/23 07:07:00;;;;;;;10.48;7.68;;;4.20;99.90;;;;;;5014772;28;20136;-59
2021/01/23 07:09:45;;;;;;;11.10;7.22;;;4.00;99.90;;;;;;5032596;28;20042;-59
2021/01/23 07:12:12;;;;;;;11.55;7.63;;;4.00;99.90;;;;;;5014461;28;20079;-60
2021/01/23 07:14:38;;;;;;;16.60;8.27;;;3.90;99.90;;;;;;5032541;28;20032;-59
2021/01/23 07:17:13;;;;;;;11.65;7.68;;;4.00;99.90;;;;;;5031675;28;20132;-64
2021/01/23 07:19:40;;;;;;;10.68;8.15;;;4.10;99.90;;;;;;5015305;28;20125;-58
2021/01/23 07:22:06;;;;;;;15.27;8.38;;;3.90;99.90;;;;;;5032467;28;20029;-62
2021/01/23 07:24:34;;;;;;;12.55;8.13;;;3.90;99.90;;;;;;5032068;28;20103;-64
2021/01/23 07:27:00;;;;;;;15.40;8.57;;;3.90;99.90;;;;;;5032300;28;20036;-59
2021/01/23 07:29:26;;;;;;;16.88;8.20;;;3.90;99.90;;;;;;5031795;28;20050;-60
2021/01/23 07:31:55;;;;;;;15.32;8.30;;;3.90;99.90;;;;;;5031380;28;20038;-58
2021/01/23 07:34:21;;;;;;;13.38;8.02;;;4.00;99.90;;;;;;5031814;28;20026;-59
2021/01/23 07:36:46;;;;;;;13.77;8.07;;;4.00;99.90;;;;;;5014663;28;20378;-60
2021/01/23 07:39:14;;;;;;;14.52;8.77;;;4.10;99.90;;;;;;5031364;28;20475;-60
2021/01/23 07:41:47;;;;;;;16.52;9.35;;;4.20;99.90;;;;;;5014657;28;20119;-58
2021/01/23 07:44:14;;;;;;;11.57;8.25;;;4.10;99.90;;;;;;5013872;28;20116;-58
2021/01/23 07:46:42;;;;;;;14.85;9.52;;;4.20;99.90;;;;;;5033410;28;20021;-61
2021/01/23 07:49:10;;;;;;;14.52;9.80;;;4.30;99.90;;;;;;5017721;28;20384;-60
2021/01/23 07:51:35;;;;;;;13.98;8.98;;;4.30;99.90;;;;;;5036160;28;20021;-59
2021/01/23 07:54:06;;;;;;;13.27;9.48;;;4.40;99.90;;;;;;5018575;28;20392;-59
2021/01/23 07:56:32;;;;;;;14.05;9.57;;;4.30;99.90;;;;;;5018302;28;20033;-59
2021/01/23 07:58:59;;;;;;;15.25;8.77;;;4.30;99.90;;;;;;5036475;28;20033;-59
2021/01/23 08:01:25;;;;;;;17.75;9.75;;;4.30;99.90;;;;;;5017413;28;20056;-59
2021/01/23 08:03:50;;;;;;;17.40;9.32;;;4.30;99.90;;;;;;5018070;28;20025;-59
2021/01/23 08:06:23;;;;;;;15.60;8.45;;;4.20;99.90;;;;;;5034710;28;20033;-58
2021/01/23 08:08:50;;;;;;;16.70;9.45;;;4.20;99.90;;;;;;5016318;28;20046;-60
2021/01/23 08:11:42;;;;;;;19.67;9.73;;;4.20;99.90;;;;;;4998568;28;20403;-58
2021/01/23 08:14:09;;;;;;;;;;;4.30;99.90;;;;;;5012759;28;20045;-62
2021/01/23 08:16:35;;;;;;;14.48;8.38;;;4.10;99.90;;;;;;5017102;28;19983;-59
2021/01/23 08:19:07;;;;;;;14.85;8.88;;;4.20;99.90;;;;;;5016952;28;20353;-59
2021/01/23 08:21:33;;;;;;;14.07;9.23;;;4.20;99.90;;;;;;5016380;28;20037;-59
2021/01/23 08:23:59;;;;;;;16.35;11.02;;;4.20;99.90;;;;;;5015661;28;20104;-59
2021/01/23 08:26:38;;;;;;;14.00;9.40;;;4.20;99.90;;;;;;4997217;28;20344;-59
2021/01/23 08:29:04;;;;;;;14.15;8.32;;;4.20;99.90;;;;;;5015739;28;20034;-58
2021/01/23 08:31:30;;;;;;;17.33;10.02;;;4.30;99.90;;;;;;5016081;28;20116;-60
2021/01/23 08:33:57;;;;;;;11.30;8.45;;;4.30;99.90;;;;;;4998380;28;20084;-58
2021/01/23 08:36:27;;;;;;;15.05;9.40;;;4.30;99.90;;;;;;5016109;28;20036;-60
2021/01/23 08:39:03;;;;;;;16.15;9.40;;;4.30;99.90;;;;;;5017616;28;20480;-59
2021/01/23 08:41:30;;;;;;;11.27;8.88;;;4.30;99.90;;;;;;4998596;28;20519;-59
2021/01/23 08:43:56;;;;;;;16.25;10.75;;;4.30;99.90;;;;;;5015161;28;20070;-60
2021/01/23 08:46:21;;;;;;;21.02;10.30;;;4.20;99.90;;;;;;5014274;28;20025;-60
2021/01/23 08:48:49;;;;;;;14.55;9.75;;;4.20;99.90;;;;;;5014953;28;20456;-61
2021/01/23 08:51:15;;;;;;;20.58;9.68;;;4.10;99.90;;;;;;5014779;28;20045;-61
2021/01/23 08:53:41;;;;;;;17.35;10.70;;;4.30;99.90;;;;;;5015461;28;20465;-59
2021/01/23 08:56:08;;;;;;;14.00;9.93;;;4.50;99.90;;;;;;5014833;28;20049;-65
2021/01/23 08:58:34;;;;;;;16.95;10.68;;;4.40;99.90;;;;;;5014449;28;20112;-59
2021/01/23 09:01:00;;;;;;;13.27;9.65;;;4.50;99.90;;;;;;4997794;28;20404;-59
2021/01/23 09:03:26;;;;;;;17.42;10.02;;;4.60;99.90;;;;;;4996805;28;20388;-60
2021/01/23 09:05:51;;;;;;;15.15;10.15;;;4.60;99.90;;;;;;5014953;28;20065;-59
2021/01/23 09:08:17;;;;;;;14.77;9.52;;;4.60;99.90;;;;;;5029546;28;20045;-59
2021/01/23 09:10:43;;;;;;;19.30;10.98;;;4.50;99.90;;;;;;5016936;28;20028;-60
2021/01/23 09:13:09;;;;;;;17.35;10.93;;;4.50;99.90;;;;;;5034361;28;20025;-65
2021/01/23 09:15:34;;;;;;;16.05;9.35;;;4.60;99.90;;;;;;5016546;28;20387;-59
2021/01/23 09:18:00;;;;;;;15.48;9.07;;;4.80;99.90;;;;;;5034124;28;20022;-59
2021/01/23 09:20:26;;;;;;;18.95;9.80;;;4.70;99.90;;;;;;5033507;28;20026;-60
2021/01/23 09:22:51;;;;;;;13.25;9.23;;;4.80;99.90;;;;;;5034209;28;20029;-60
2021/01/23 09:25:19;;;;;;;13.23;9.65;;;4.90;99.90;;;;;;5033576;28;20029;-59
2021/01/23 09:27:45;;;;;;;12.50;8.35;;;4.80;99.90;;;;;;5016699;28;20036;-60
2021/01/23 09:30:14;;;;;;;17.15;9.35;;;4.70;99.90;;;;;;5016339;28;20029;-67
2021/01/23 09:32:41;;;;;;;12.38;8.05;;;4.60;99.90;;;;;;5016017;28;20113;-59
2021/01/23 09:35:07;;;;;;;12.15;7.68;;;4.70;99.90;;;;;;5033163;28;20418;-60
2021/01/23 09:37:32;;;;;;;12.32;8.63;;;5.50;99.90;;;;;;5015845;28;20069;-61
2021/01/23 09:40:00;;;;;;;11.90;8.02;;;5.20;99.90;;;;;;5034136;28;20452;-61
2021/01/23 09:42:25;;;;;;;13.35;7.93;;;5.00;99.90;;;;;;5015870;28;20619;-61
2021/01/23 09:44:51;;;;;;;13.65;7.97;;;5.00;99.90;;;;;;5016530;28;20025;-60
2021/01/23 09:47:17;;;;;;;12.50;8.18;;;5.00;99.90;;;;;;5033516;28;20527;-60
2021/01/23 09:49:43;;;;;;;14.43;8.98;;;4.80;99.90;;;;;;5016117;28;20590;-63
2021/01/23 09:52:09;;;;;;;14.20;8.00;;;5.00;99.90;;;;;;5033908;28;20026;-60
2021/01/23 09:54:35;;;;;;;10.00;7.35;;;5.00;99.90;;;;;;5015184;28;20064;-61
2021/01/23 09:57:04;;;;;;;13.68;7.90;;;5.00;99.90;;;;;;5033941;28;20036;-61
2021/01/23 09:59:30;;;;;;;13.00;7.75;;;4.90;99.90;;;;;;5014652;28;20063;-62
2021/01/23 10:01:58;;;;;;;11.88;7.25;;;5.00;99.90;;;;;;5015763;28;20116;-60
2021/01/23 10:04:24;;;;;;;15.18;9.00;;;5.20;99.90;;;;;;5014392;28;20021;-60
2021/01/23 10:06:50;;;;;;;10.85;7.40;;;5.10;99.90;;;;;;5015305;28;20068;-61
2021/01/23 10:09:17;;;;;;;13.18;8.27;;;5.10;99.90;;;;;;5032888;28;20057;-61
2021/01/23 10:11:44;;;;;;;12.27;7.68;;;5.00;99.90;;;;;;5015615;28;20021;-59
2021/01/23 10:14:10;;;;;;;15.55;8.02;;;4.80;99.90;;;;;;5015607;28;20023;-60
2021/01/23 10:16:35;;;;;;;14.02;8.82;;;4.90;99.90;;;;;;5036351;28;20084;-59
2021/01/23 10:19:04;;;;;;;18.60;8.77;;;5.00;99.90;;;;;;5018540;28;20036;-59
2021/01/23 10:21:30;;;;;;;10.65;8.00;;;5.00;99.90;;;;;;5014717;28;20021;-60
2021/01/23 10:23:56;;;;;;;12.50;8.50;;;5.00;99.90;;;;;;5033648;28;20025;-62
2021/01/23 10:26:22;;;;;;;11.30;8.45;;;4.80;99.90;;;;;;5014636;28;20026;-60
2021/01/23 10:28:48;;;;;;;14.55;8.30;;;4.80;99.90;;;;;;5015360;28;20057;-61
2021/01/23 10:31:13;;;;;;;18.52;8.73;;;5.00;99.90;;;;;;5014942;28;20052;-67
2021/01/23 10:33:39;;;;;;;13.18;9.20;;;5.00;99.90;;;;;;5032650;28;20026;-60
2021/01/23 10:36:05;;;;;;;15.93;9.07;;;4.90;99.90;;;;;;5013296;28;20021;-61
2021/01/23 10:38:31;;;;;;;15.65;8.40;;;4.80;99.90;;;;;;5022039;28;20040;-61
2021/01/23 10:40:56;;;;;;;16.27;9.43;;;5.00;99.90;;;;;;5006113;28;20026;-59
2021/01/23 10:43:22;;;;;;;17.25;9.05;;;5.10;99.90;;;;;;5023925;28;20018;-63
2021/01/23 10:45:49;;;;;;;19.13;10.60;;;5.00;99.90;;;;;;5005395;28;20510;-65
2021/01/23 10:48:15;;;;;;;20.48;10.70;;;4.80;99.90;;;;;;5000444;28;20026;-72
2021/01/23 10:50:41;;;;;;;15.60;9.57;;;5.60;99.90;;;;;;5014266;28;20025;-61
2021/01/23 10:53:06;;;;;;;16.13;9.57;;;5.40;99.90;;;;;;5016170;28;20033;-60
2021/01/23 10:55:33;;;;;;;14.55;9.57;;;5.20;99.90;;;;;;5004217;28;20076;-61
2021/01/23 10:57:58;;;;;;;18.05;10.27;;;4.90;99.90;;;;;;5003582;28;20026;-60
2021/01/23 11:00:24;;;;;;;16.13;9.65;;;4.90;99.90;;;;;;5027945;28;20036;-63
2021/01/23 11:02:50;;;;;;;15.00;9.00;;;5.00;99.90;;;;;;5015337;28;20181;-63
2021/01/23 11:05:16;;;;;;;13.38;9.57;;;5.00;99.90;;;;;;5015855;28;20470;-66
2021/01/23 11:07:42;;;;;;;15.00;9.57;;;5.00;99.90;;;;;;5016453;28;20515;-63
2021/01/23 11:10:08;;;;;;;13.85;9.32;;;4.80;99.90;;;;;;5016514;28;20390;-62
2021/01/23 11:12:34;;;;;;;18.25;10.13;;;4.90;99.90;;;;;;5026716;28;20309;-63
2021/01/23 11:15:00;;;;;;;13.70;9.50;;;4.80;99.90;;;;;;5014039;28;20041;-63
2021/01/23 11:17:26;;;;;;;15.75;10.48;;;5.00;99.90;;;;;;4995409;28;20026;-65
2021/01/23 11:19:52;;;;;;;15.48;9.75;;;4.90;99.90;;;;;;5017337;28;20033;-62
2021/01/23 11:22:18;;;;;;;18.60;9.80;;;5.00;99.90;;;;;;5006926;28;20038;-66
2021/01/23 11:24:44;;;;;;;17.88;9.75;;;5.10;99.90;;;;;;5017651;28;20045;-62
2021/01/23 11:27:10;;;;;;;16.67;9.63;;;5.20;99.90;;;;;;5001115;28;20448;-61
2021/01/23 11:29:35;;;;;;;14.73;8.90;;;5.20;99.90;;;;;;5003045;28;20360;-61
2021/01/23 11:32:01;;;;;;;13.50;9.73;;;5.30;99.90;;;;;;5019977;28;20085;-63
2021/01/23 11:34:27;;;;;;;13.98;10.23;;;5.40;99.90;;;;;;5037159;28;20451;-61
2021/01/23 11:36:53;;;;;;;19.33;10.23;;;5.20;99.90;;;;;;5037982;28;20025;-62
2021/01/23 11:39:19;;;;;;;14.30;9.63;;;5.20;99.90;;;;;;5019134;28;20476;-67
2021/01/23 11:41:45;;;;;;;13.90;9.70;;;5.10;99.90;;;;;;5018791;28;20077;-61
2021/01/23 11:44:11;;;;;;;17.42;9.25;;;5.00;99.90;;;;;;5009374;28;20109;-67
2021/01/23 11:46:37;;;;;;;15.20;10.13;;;5.00;99.90;;;;;;4978559;28;20034;-63
2021/01/23 11:49:04;;;;;;;14.00;9.00;;;5.00;99.90;;;;;;4999647;28;20034;-71
2021/01/23 11:51:30;;;;;;;14.07;9.40;;;5.20;99.90;;;;;;5017089;28;20030;-62
2021/01/23 11:53:57;;;;;;;22.00;10.35;;;5.20;99.90;;;;;;5036992;28;20021;-64
2021/01/23 11:56:23;;;;;;;12.68;8.68;;;5.20;99.90;;;;;;5017984;28;20057;-62
2021/01/23 11:58:50;;;;;;;12.43;8.88;;;5.20;99.90;;;;;;5018696;28;20084;-64
2021/01/23 12:01:16;;;;;;;12.48;9.00;;;5.20;99.90;;;;;;5037527;28;20099;-63
2021/01/23 12:03:41;;;;;;;13.40;8.65;;;5.10;99.90;;;;;;5034497;28;20483;-62
2021/01/23 12:06:07;;;;;;;12.25;8.90;;;5.20;99.90;;;;;;5035204;28;20031;-61
2021/01/23 12:08:33;;;;;;;18.13;8.15;;;5.30;99.90;;;;;;5036319;28;20466;-62
2021/01/23 12:10:59;;;;;;;13.13;7.97;;;5.30;99.90;;;;;;4975044;28;20094;-61
2021/01/23 12:13:26;;;;;;;11.95;8.30;;;5.40;99.90;;;;;;4958345;28;20034;-63
2021/01/23 12:15:52;;;;;;;12.07;8.63;;;5.20;99.90;;;;;;4958765;28;20073;-62
2021/01/23 12:18:18;;;;;;;13.60;8.20;;;5.40;99.90;;;;;;4958236;28;20504;-64
2021/01/23 12:20:44;;;;;;;11.70;7.32;;;5.30;99.90;;;;;;4940566;29;20043;-62
2021/01/23 12:23:10;;;;;;;11.38;7.50;;;5.40;99.90;;;;;;4954604;28;20031;-63
2021/01/23 12:25:36;;;;;;;11.35;7.75;;;5.50;99.90;;;;;;4945497;28;20082;-62
2021/01/23 12:28:03;;;;;;;14.25;8.32;;;5.50;99.90;;;;;;4954494;29;20118;-67
2021/01/23 12:30:29;;;;;;;9.75;6.97;;;5.40;99.90;;;;;;4953585;29;20047;-61
2021/01/23 12:32:54;;;;;;;8.38;6.47;;;5.60;99.90;;;;;;4955295;28;20027;-63
2021/01/23 12:35:21;;;;;;;15.18;7.35;;;5.60;99.90;;;;;;4938898;29;20024;-68
2021/01/23 12:37:48;;;;;;;11.13;6.60;;;5.70;99.90;;;;;;4954827;29;20042;-61
2021/01/23 12:40:14;;;;;;;8.45;6.47;;;5.70;99.90;;;;;;4938640;29;20031;-73
2021/01/23 12:42:40;;;;;;;8.45;6.47;;;5.60;99.90;;;;;;4969486;28;20041;-61
2021/01/23 12:45:10;;;;;;;11.20;7.38;;;5.60;99.90;;;;;;5014247;28;20030;-61
2021/01/23 12:47:36;;;;;;;10.52;6.85;;;5.60;99.90;;;;;;5014317;28;20026;-62
2021/01/23 12:50:02;;;;;;;9.80;5.85;;;5.50;99.90;;;;;;5003942;28;20053;-61